sensor_id;sensor_type;location;lat;lon;timestamp;temperature;humidity
3492;DHT22;1760;52.480;13.422;2022-10-16T00:00:47;16.40;99.90
3492;DHT22;1760;52.480;13.422;2022-10-16T00:03:17;16.50;99.90
3492;DHT22;1760;52.480;13.422;2022-10-16T00:05:46;16.50;99.90
3492;DHT22;1760;52.480;13.422;2022-10-16T00:08:13;16.50;99.90
3492;DHT22;1760;52.480;13.422;2022-10-16T00:10:40;16.50;99.90
3492;DHT22;1760;52.480;13.422;2022-10-16T00:13:07;16.60;99.90
3492;DHT22;1760;52.480;13.422;2022-10-16T00:15:37;16.60;99.90
3492;DHT22;1760;52.480;13.422;2022-10-16T00:18:05;16.60;99.90
3492;DHT22;1760;52.480;13.422;2022-10-16T00:20:34;16.60;99.90
3492;DHT22;1760;52.480;13.422;2022-10-16T00:23:03;16.60;99.90
3492;DHT22;1760;52.480;13.422;2022-10-16T00:25:31;16.70;99.90
3492;DHT22;1760;52.480;13.422;2022-10-16T00:28:02;16.70;99.90
3492;DHT22;1760;52.480;13.422;2022-10-16T00:30:29;16.70;99.90
3492;DHT22;1760;52.480;13.422;2022-10-16T00:32:56;16.70;99.90
3492;DHT22;1760;52.480;13.422;2022-10-16T00:35:23;16.70;99.90
3492;DHT22;1760;52.480;13.422;2022-10-16T00:37:50;16.70;99.90
3492;DHT22;1760;52.480;13.422;2022-10-16T00:40:18;16.70;99.90
3492;DHT22;1760;52.480;13.422;2022-10-16T00:42:45;16.70;99.90
3492;DHT22;1760;52.480;13.422;2022-10-16T00:45:12;16.70;99.90
3492;DHT22;1760;52.480;13.422;2022-10-16T00:47:40;16.70;99.90
3492;DHT22;1760;52.480;13.422;2022-10-16T00:50:13;16.70;99.90
3492;DHT22;1760;52.480;13.422;2022-10-16T00:52:47;16.70;99.90
3492;DHT22;1760;52.480;13.422;2022-10-16T00:55:15;16.70;99.90
3492;DHT22;1760;52.480;13.422;2022-10-16T00:57:44;16.80;99.90
3492;DHT22;1760;52.480;13.422;2022-10-16T01:00:14;16.80;99.90
3492;DHT22;1760;52.480;13.422;2022-10-16T01:02:42;16.70;99.90
3492;DHT22;1760;52.480;13.422;2022-10-16T01:05:09;16.70;99.90
3492;DHT22;1760;52.480;13.422;2022-10-16T01:07:41;16.80;99.90
3492;DHT22;1760;52.480;13.422;2022-10-16T01:10:20;16.70;99.90
3492;DHT22;1760;52.480;13.422;2022-10-16T01:12:57;16.80;99.90
3492;DHT22;1760;52.480;13.422;2022-10-16T01:15:28;16.80;99.90
3492;DHT22;1760;52.480;13.422;2022-10-16T01:18:03;16.80;99.90
3492;DHT22;1760;52.480;13.422;2022-10-16T01:20:33;16.20;99.90
3492;DHT22;1760;52.480;13.422;2022-10-16T01:23:10;16.70;99.90
3492;DHT22;1760;52.480;13.422;2022-10-16T01:25:55;16.70;99.90
3492;DHT22;1760;52.480;13.422;2022-10-16T01:28:32;16.60;99.90
3492;DHT22;1760;52.480;13.422;2022-10-16T01:31:01;16.60;99.90
3492;DHT22;1760;52.480;13.422;2022-10-16T01:33:33;16.60;99.90
3492;DHT22;1760;52.480;13.422;2022-10-16T01:36:07;16.50;99.90
3492;DHT22;1760;52.480;13.422;2022-10-16T01:38:40;16.50;99.90
3492;DHT22;1760;52.480;13.422;2022-10-16T01:41:09;16.50;99.90
3492;DHT22;1760;52.480;13.422;2022-10-16T01:43:42;16.40;99.90
3492;DHT22;1760;52.480;13.422;2022-10-16T01:46:10;16.40;99.90
3492;DHT22;1760;52.480;13.422;2022-10-16T01:48:39;16.40;99.90
3492;DHT22;1760;52.480;13.422;2022-10-16T01:51:13;16.40;99.90
3492;DHT22;1760;52.480;13.422;2022-10-16T01:53:42;16.30;99.90
3492;DHT22;1760;52.480;13.422;2022-10-16T01:56:12;16.30;99.90
3492;DHT22;1760;52.480;13.422;2022-10-16T01:58:45;16.30;99.90
3492;DHT22;1760;52.480;13.422;2022-10-16T02:01:14;16.40;99.90
3492;DHT22;1760;52.480;13.422;2022-10-16T02:03:44;16.40;99.90
3492;DHT22;1760;52.480;13.422;2022-10-16T02:06:13;16.40;99.90
3492;DHT22;1760;52.480;13.422;2022-10-16T02:08:39;16.30;99.90
3492;DHT22;1760;52.480;13.422;2022-10-16T02:11:10;16.40;99.90
3492;DHT22;1760;52.480;13.422;2022-10-16T02:13:39;16.40;99.90
3492;DHT22;1760;52.480;13.422;2022-10-16T02:16:09;16.50;99.90
3492;DHT22;1760;52.480;13.422;2022-10-16T02:18:37;16.40;99.90
3492;DHT22;1760;52.480;13.422;2022-10-16T02:21:08;16.50;99.90
3492;DHT22;1760;52.480;13.422;2022-10-16T02:23:42;16.50;99.90
3492;DHT22;1760;52.480;13.422;2022-10-16T02:26:15;16.50;99.90
3492;DHT22;1760;52.480;13.422;2022-10-16T02:28:48;16.50;99.90
3492;DHT22;1760;52.480;13.422;2022-10-16T02:31:26;16.50;99.90
3492;DHT22;1760;52.480;13.422;2022-10-16T02:33:59;16.50;99.90
3492;DHT22;1760;52.480;13.422;2022-10-16T02:36:27;16.50;99.90
3492;DHT22;1760;52.480;13.422;2022-10-16T02:38:54;16.50;99.90
3492;DHT22;1760;52.480;13.422;2022-10-16T02:41:21;16.50;99.90
3492;DHT22;1760;52.480;13.422;2022-10-16T02:43:49;16.50;99.90
3492;DHT22;1760;52.480;13.422;2022-10-16T02:46:17;16.50;99.90
3492;DHT22;1760;52.480;13.422;2022-10-16T02:48:45;16.50;99.90
3492;DHT22;1760;52.480;13.422;2022-10-16T02:51:13;16.60;99.90
3492;DHT22;1760;52.480;13.422;2022-10-16T02:53:40;16.50;99.90
3492;DHT22;1760;52.480;13.422;2022-10-16T02:56:07;16.50;99.90
3492;DHT22;1760;52.480;13.422;2022-10-16T02:58:36;16.60;99.90
3492;DHT22;1760;52.480;13.422;2022-10-16T03:01:03;16.60;99.90
3492;DHT22;1760;52.480;13.422;2022-10-16T03:03:30;16.50;99.90
3492;DHT22;1760;52.480;13.422;2022-10-16T03:05:58;16.50;99.90
3492;DHT22;1760;52.480;13.422;2022-10-16T03:08:25;16.50;99.90
3492;DHT22;1760;52.480;13.422;2022-10-16T03:10:52;16.50;99.90
3492;DHT22;1760;52.480;13.422;2022-10-16T03:13:19;16.50;99.90
3492;DHT22;1760;52.480;13.422;2022-10-16T03:15:46;16.40;99.90
3492;DHT22;1760;52.480;13.422;2022-10-16T03:18:14;16.40;99.90
3492;DHT22;1760;52.480;13.422;2022-10-16T03:20:42;16.40;99.90
3492;DHT22;1760;52.480;13.422;2022-10-16T03:23:10;16.40;99.90
3492;DHT22;1760;52.480;13.422;2022-10-16T03:25:37;16.40;99.90
3492;DHT22;1760;52.480;13.422;2022-10-16T03:28:03;16.30;99.90
3492;DHT22;1760;52.480;13.422;2022-10-16T03:30:30;16.30;99.90
3492;DHT22;1760;52.480;13.422;2022-10-16T03:32:59;16.30;99.90
3492;DHT22;1760;52.480;13.422;2022-10-16T03:35:26;16.30;99.90
3492;DHT22;1760;52.480;13.422;2022-10-16T03:37:52;16.30;99.90
3492;DHT22;1760;52.480;13.422;2022-10-16T03:40:21;16.30;99.90
3492;DHT22;1760;52.480;13.422;2022-10-16T03:42:49;16.20;99.90
3492;DHT22;1760;52.480;13.422;2022-10-16T03:45:16;16.20;99.90
3492;DHT22;1760;52.480;13.422;2022-10-16T03:47:49;16.20;99.90
3492;DHT22;1760;52.480;13.422;2022-10-16T03:50:16;16.20;99.90
3492;DHT22;1760;52.480;13.422;2022-10-16T03:52:43;16.10;99.90
3492;DHT22;1760;52.480;13.422;2022-10-16T03:55:10;16.10;99.90
3492;DHT22;1760;52.480;13.422;2022-10-16T03:57:38;16.00;99.90
3492;DHT22;1760;52.480;13.422;2022-10-16T04:00:10;16.00;99.90
3492;DHT22;1760;52.480;13.422;2022-10-16T04:02:37;16.00;99.90
3492;DHT22;1760;52.480;13.422;2022-10-16T04:05:04;16.00;99.90
3492;DHT22;1760;52.480;13.422;2022-10-16T04:07:31;16.00;99.90
3492;DHT22;1760;52.480;13.422;2022-10-16T04:10:07;16.00;99.90
3492;DHT22;1760;52.480;13.422;2022-10-16T04:12:34;16.00;99.90
3492;DHT22;1760;52.480;13.422;2022-10-16T04:15:03;16.00;99.90
3492;DHT22;1760;52.480;13.422;2022-10-16T04:17:32;16.00;99.90
3492;DHT22;1760;52.480;13.422;2022-10-16T04:20:02;16.00;99.90
3492;DHT22;1760;52.480;13.422;2022-10-16T04:22:31;16.00;99.90
3492;DHT22;1760;52.480;13.422;2022-10-16T04:24:59;16.00;99.90
3492;DHT22;1760;52.480;13.422;2022-10-16T04:27:26;16.00;99.90
3492;DHT22;1760;52.480;13.422;2022-10-16T04:29:53;16.10;99.90
3492;DHT22;1760;52.480;13.422;2022-10-16T04:32:21;16.10;99.90
3492;DHT22;1760;52.480;13.422;2022-10-16T04:34:48;16.10;99.90
3492;DHT22;1760;52.480;13.422;2022-10-16T04:37:15;16.20;99.90
3492;DHT22;1760;52.480;13.422;2022-10-16T04:39:47;16.10;99.90
3492;DHT22;1760;52.480;13.422;2022-10-16T04:42:13;16.10;99.90
3492;DHT22;1760;52.480;13.422;2022-10-16T04:44:41;16.10;99.90
3492;DHT22;1760;52.480;13.422;2022-10-16T04:47:10;16.10;99.90
3492;DHT22;1760;52.480;13.422;2022-10-16T04:49:41;16.10;99.90
3492;DHT22;1760;52.480;13.422;2022-10-16T04:52:10;16.10;99.90
3492;DHT22;1760;52.480;13.422;2022-10-16T04:54:41;16.10;99.90
3492;DHT22;1760;52.480;13.422;2022-10-16T04:57:10;16.10;99.90
3492;DHT22;1760;52.480;13.422;2022-10-16T04:59:39;16.10;99.90
3492;DHT22;1760;52.480;13.422;2022-10-16T05:02:05;16.10;99.90
3492;DHT22;1760;52.480;13.422;2022-10-16T05:04:36;16.10;99.90
3492;DHT22;1760;52.480;13.422;2022-10-16T05:07:04;16.10;99.90
3492;DHT22;1760;52.480;13.422;2022-10-16T05:09:31;16.00;99.90
3492;DHT22;1760;52.480;13.422;2022-10-16T05:11:59;16.00;99.90
3492;DHT22;1760;52.480;13.422;2022-10-16T05:14:26;16.00;99.90
3492;DHT22;1760;52.480;13.422;2022-10-16T05:16:52;15.90;99.90
3492;DHT22;1760;52.480;13.422;2022-10-16T05:19:21;15.90;99.90
3492;DHT22;1760;52.480;13.422;2022-10-16T05:21:52;15.80;99.90
3492;DHT22;1760;52.480;13.422;2022-10-16T05:24:22;15.90;99.90
3492;DHT22;1760;52.480;13.422;2022-10-16T05:26:49;15.90;99.90
3492;DHT22;1760;52.480;13.422;2022-10-16T05:29:18;15.90;99.90
3492;DHT22;1760;52.480;13.422;2022-10-16T05:31:45;15.90;99.90
3492;DHT22;1760;52.480;13.422;2022-10-16T05:36:50;15.80;99.90
3492;DHT22;1760;52.480;13.422;2022-10-16T05:39:17;15.80;99.90
3492;DHT22;1760;52.480;13.422;2022-10-16T05:41:49;15.80;99.90
3492;DHT22;1760;52.480;13.422;2022-10-16T05:44:22;15.80;99.90
3492;DHT22;1760;52.480;13.422;2022-10-16T05:46:55;15.90;99.90
3492;DHT22;1760;52.480;13.422;2022-10-16T05:49:21;15.90;99.90
3492;DHT22;1760;52.480;13.422;2022-10-16T05:51:48;15.80;99.90
3492;DHT22;1760;52.480;13.422;2022-10-16T05:54:15;15.80;99.90
3492;DHT22;1760;52.480;13.422;2022-10-16T05:56:42;15.80;99.90
3492;DHT22;1760;52.480;13.422;2022-10-16T05:59:10;15.80;99.90
3492;DHT22;1760;52.480;13.422;2022-10-16T06:01:37;15.70;99.90
3492;DHT22;1760;52.480;13.422;2022-10-16T06:04:04;15.70;99.90
3492;DHT22;1760;52.480;13.422;2022-10-16T06:06:31;15.60;99.90
3492;DHT22;1760;52.480;13.422;2022-10-16T06:09:00;15.70;99.90
3492;DHT22;1760;52.480;13.422;2022-10-16T06:11:29;15.70;99.90
3492;DHT22;1760;52.480;13.422;2022-10-16T06:13:58;15.70;99.90
3492;DHT22;1760;52.480;13.422;2022-10-16T06:16:31;15.70;99.90
3492;DHT22;1760;52.480;13.422;2022-10-16T06:18:58;15.80;99.90
3492;DHT22;1760;52.480;13.422;2022-10-16T06:21:28;15.80;99.90
3492;DHT22;1760;52.480;13.422;2022-10-16T06:23:56;15.80;99.90
3492;DHT22;1760;52.480;13.422;2022-10-16T06:26:27;15.80;99.90
3492;DHT22;1760;52.480;13.422;2022-10-16T06:28:55;15.90;99.90
3492;DHT22;1760;52.480;13.422;2022-10-16T06:31:22;15.90;99.90
3492;DHT22;1760;52.480;13.422;2022-10-16T06:33:55;16.00;99.90
3492;DHT22;1760;52.480;13.422;2022-10-16T06:36:26;16.00;99.90
3492;DHT22;1760;52.480;13.422;2022-10-16T06:38:53;16.00;99.90
3492;DHT22;1760;52.480;13.422;2022-10-16T06:41:23;16.00;99.90
3492;DHT22;1760;52.480;13.422;2022-10-16T06:43:51;16.10;99.90
3492;DHT22;1760;52.480;13.422;2022-10-16T06:46:21;16.10;99.90
3492;DHT22;1760;52.480;13.422;2022-10-16T06:48:48;16.10;99.90
3492;DHT22;1760;52.480;13.422;2022-10-16T06:51:17;16.20;99.90
3492;DHT22;1760;52.480;13.422;2022-10-16T06:53:46;16.20;99.90
3492;DHT22;1760;52.480;13.422;2022-10-16T06:56:16;16.20;99.90
3492;DHT22;1760;52.480;13.422;2022-10-16T06:58:43;16.20;99.90
3492;DHT22;1760;52.480;13.422;2022-10-16T07:01:11;16.30;99.90
3492;DHT22;1760;52.480;13.422;2022-10-16T07:03:39;16.30;99.90
3492;DHT22;1760;52.480;13.422;2022-10-16T07:06:08;16.30;99.90
3492;DHT22;1760;52.480;13.422;2022-10-16T07:08:39;16.30;99.90
3492;DHT22;1760;52.480;13.422;2022-10-16T07:11:07;16.40;99.90
3492;DHT22;1760;52.480;13.422;2022-10-16T07:13:35;16.50;99.90
3492;DHT22;1760;52.480;13.422;2022-10-16T07:16:04;16.70;99.90
3492;DHT22;1760;52.480;13.422;2022-10-16T07:18:32;16.80;99.90
3492;DHT22;1760;52.480;13.422;2022-10-16T07:21:03;16.90;99.90
3492;DHT22;1760;52.480;13.422;2022-10-16T07:23:30;16.90;99.90
3492;DHT22;1760;52.480;13.422;2022-10-16T07:25:58;17.00;99.90
3492;DHT22;1760;52.480;13.422;2022-10-16T07:28:25;17.00;99.90
3492;DHT22;1760;52.480;13.422;2022-10-16T07:30:52;17.10;99.90
3492;DHT22;1760;52.480;13.422;2022-10-16T07:33:19;17.10;99.90
3492;DHT22;1760;52.480;13.422;2022-10-16T07:35:50;17.20;99.90
3492;DHT22;1760;52.480;13.422;2022-10-16T07:38:17;17.30;99.90
3492;DHT22;1760;52.480;13.422;2022-10-16T07:40:44;17.40;99.90
3492;DHT22;1760;52.480;13.422;2022-10-16T07:43:13;17.50;99.90
3492;DHT22;1760;52.480;13.422;2022-10-16T07:45:49;17.60;99.90
3492;DHT22;1760;52.480;13.422;2022-10-16T07:48:19;17.60;99.90
3492;DHT22;1760;52.480;13.422;2022-10-16T07:50:46;17.60;99.90
3492;DHT22;1760;52.480;13.422;2022-10-16T07:53:15;17.60;99.90
3492;DHT22;1760;52.480;13.422;2022-10-16T07:55:44;17.60;99.90
3492;DHT22;1760;52.480;13.422;2022-10-16T07:58:12;17.60;99.90
3492;DHT22;1760;52.480;13.422;2022-10-16T08:00:39;17.60;99.90
3492;DHT22;1760;52.480;13.422;2022-10-16T08:03:06;17.60;99.90
3492;DHT22;1760;52.480;13.422;2022-10-16T08:05:33;17.60;99.90
3492;DHT22;1760;52.480;13.422;2022-10-16T08:08:01;17.60;99.90
3492;DHT22;1760;52.480;13.422;2022-10-16T08:10:28;17.70;99.90
3492;DHT22;1760;52.480;13.422;2022-10-16T08:12:58;17.70;99.90
3492;DHT22;1760;52.480;13.422;2022-10-16T08:15:29;17.80;99.90
3492;DHT22;1760;52.480;13.422;2022-10-16T08:17:57;17.70;99.90
3492;DHT22;1760;52.480;13.422;2022-10-16T08:20:25;17.80;99.90
3492;DHT22;1760;52.480;13.422;2022-10-16T08:22:54;17.80;99.90
3492;DHT22;1760;52.480;13.422;2022-10-16T08:25:24;17.90;99.90
3492;DHT22;1760;52.480;13.422;2022-10-16T08:27:51;17.90;99.90
3492;DHT22;1760;52.480;13.422;2022-10-16T08:30:19;18.00;99.90
3492;DHT22;1760;52.480;13.422;2022-10-16T08:32:47;18.10;99.90
3492;DHT22;1760;52.480;13.422;2022-10-16T08:35:14;18.10;99.90
3492;DHT22;1760;52.480;13.422;2022-10-16T08:37:41;18.10;99.90
3492;DHT22;1760;52.480;13.422;2022-10-16T08:40:16;18.20;99.90
3492;DHT22;1760;52.480;13.422;2022-10-16T08:42:57;18.30;99.90
3492;DHT22;1760;52.480;13.422;2022-10-16T08:45:36;18.40;99.90
3492;DHT22;1760;52.480;13.422;2022-10-16T08:48:17;18.40;99.90
3492;DHT22;1760;52.480;13.422;2022-10-16T08:50:45;18.50;99.90
3492;DHT22;1760;52.480;13.422;2022-10-16T08:53:16;18.50;99.90
3492;DHT22;1760;52.480;13.422;2022-10-16T08:55:46;18.50;99.90
3492;DHT22;1760;52.480;13.422;2022-10-16T08:58:17;18.50;99.90
3492;DHT22;1760;52.480;13.422;2022-10-16T09:00:47;18.50;99.90
3492;DHT22;1760;52.480;13.422;2022-10-16T09:03:25;18.50;99.90
3492;DHT22;1760;52.480;13.422;2022-10-16T09:09:21;18.60;99.90
3492;DHT22;1760;52.480;13.422;2022-10-16T09:11:58;18.70;99.90
3492;DHT22;1760;52.480;13.422;2022-10-16T09:14:47;18.90;99.90
3492;DHT22;1760;52.480;13.422;2022-10-16T09:17:27;19.20;99.90
3492;DHT22;1760;52.480;13.422;2022-10-16T09:20:09;19.30;99.90
3492;DHT22;1760;52.480;13.422;2022-10-16T09:22:39;19.40;99.90
3492;DHT22;1760;52.480;13.422;2022-10-16T09:25:11;19.50;99.90
3492;DHT22;1760;52.480;13.422;2022-10-16T09:27:39;19.50;99.90
3492;DHT22;1760;52.480;13.422;2022-10-16T09:30:12;19.60;99.90
3492;DHT22;1760;52.480;13.422;2022-10-16T09:32:43;19.80;99.90
3492;DHT22;1760;52.480;13.422;2022-10-16T09:35:16;20.30;99.90
3492;DHT22;1760;52.480;13.422;2022-10-16T09:37:46;20.90;99.90
3492;DHT22;1760;52.480;13.422;2022-10-16T09:40:25;21.20;99.90
3492;DHT22;1760;52.480;13.422;2022-10-16T09:43:01;21.10;99.90
3492;DHT22;1760;52.480;13.422;2022-10-16T09:45:28;21.40;99.90
3492;DHT22;1760;52.480;13.422;2022-10-16T09:47:55;22.10;99.90
3492;DHT22;1760;52.480;13.422;2022-10-16T09:50:25;23.10;99.90
3492;DHT22;1760;52.480;13.422;2022-10-16T09:53:03;24.00;99.90
3492;DHT22;1760;52.480;13.422;2022-10-16T09:55:32;23.70;99.90
3492;DHT22;1760;52.480;13.422;2022-10-16T09:57:59;23.40;99.90
3492;DHT22;1760;52.480;13.422;2022-10-16T10:00:26;22.90;99.90
3492;DHT22;1760;52.480;13.422;2022-10-16T10:02:54;22.50;99.90
3492;DHT22;1760;52.480;13.422;2022-10-16T10:05:24;22.30;99.90
3492;DHT22;1760;52.480;13.422;2022-10-16T10:07:56;22.40;99.90
3492;DHT22;1760;52.480;13.422;2022-10-16T10:10:25;22.60;99.90
3492;DHT22;1760;52.480;13.422;2022-10-16T10:12:54;22.30;99.90
3492;DHT22;1760;52.480;13.422;2022-10-16T10:15:22;22.10;99.90
3492;DHT22;1760;52.480;13.422;2022-10-16T10:17:51;21.90;99.90
3492;DHT22;1760;52.480;13.422;2022-10-16T10:20:28;21.70;99.90
3492;DHT22;1760;52.480;13.422;2022-10-16T10:22:56;21.50;99.90
3492;DHT22;1760;52.480;13.422;2022-10-16T10:25:42;21.30;99.90
3492;DHT22;1760;52.480;13.422;2022-10-16T10:28:27;22.30;99.90
3492;DHT22;1760;52.480;13.422;2022-10-16T10:31:02;21.10;99.90
3492;DHT22;1760;52.480;13.422;2022-10-16T10:33:37;20.90;99.90
3492;DHT22;1760;52.480;13.422;2022-10-16T10:36:29;20.90;99.90
3492;DHT22;1760;52.480;13.422;2022-10-16T10:38:59;20.80;99.90
3492;DHT22;1760;52.480;13.422;2022-10-16T10:44:43;20.90;99.90
3492;DHT22;1760;52.480;13.422;2022-10-16T10:47:24;21.00;99.90
3492;DHT22;1760;52.480;13.422;2022-10-16T10:50:02;21.10;99.90
3492;DHT22;1760;52.480;13.422;2022-10-16T10:52:42;21.50;99.90
3492;DHT22;1760;52.480;13.422;2022-10-16T10:55:16;21.70;99.90
3492;DHT22;1760;52.480;13.422;2022-10-16T10:57:57;21.90;99.90
3492;DHT22;1760;52.480;13.422;2022-10-16T11:00:35;22.00;99.90
3492;DHT22;1760;52.480;13.422;2022-10-16T11:03:17;22.00;99.90
3492;DHT22;1760;52.480;13.422;2022-10-16T11:05:52;21.90;99.90
3492;DHT22;1760;52.480;13.422;2022-10-16T11:08:27;21.90;99.90
3492;DHT22;1760;52.480;13.422;2022-10-16T11:10:59;21.70;99.90
3492;DHT22;1760;52.480;13.422;2022-10-16T11:13:32;21.60;99.90
3492;DHT22;1760;52.480;13.422;2022-10-16T11:16:03;21.70;99.90
3492;DHT22;1760;52.480;13.422;2022-10-16T11:18:42;21.70;99.90
3492;DHT22;1760;52.480;13.422;2022-10-16T11:21:13;21.80;99.90
3492;DHT22;1760;52.480;13.422;2022-10-16T11:23:46;21.80;99.90
3492;DHT22;1760;52.480;13.422;2022-10-16T11:26:19;21.80;99.90
3492;DHT22;1760;52.480;13.422;2022-10-16T11:28:49;21.60;99.90
3492;DHT22;1760;52.480;13.422;2022-10-16T11:31:22;21.40;99.90
3492;DHT22;1760;52.480;13.422;2022-10-16T11:33:58;21.20;99.90
3492;DHT22;1760;52.480;13.422;2022-10-16T11:36:33;21.10;99.90
3492;DHT22;1760;52.480;13.422;2022-10-16T11:39:11;21.00;99.90
3492;DHT22;1760;52.480;13.422;2022-10-16T11:41:45;21.00;99.90
3492;DHT22;1760;52.480;13.422;2022-10-16T11:44:38;21.10;99.90
3492;DHT22;1760;52.480;13.422;2022-10-16T11:47:15;21.10;99.90
3492;DHT22;1760;52.480;13.422;2022-10-16T11:49:51;21.20;99.90
3492;DHT22;1760;52.480;13.422;2022-10-16T11:52:22;21.30;99.90
3492;DHT22;1760;52.480;13.422;2022-10-16T11:54:54;21.40;99.90
3492;DHT22;1760;52.480;13.422;2022-10-16T11:57:24;21.40;99.90
3492;DHT22;1760;52.480;13.422;2022-10-16T11:59:56;21.40;99.90
3492;DHT22;1760;52.480;13.422;2022-10-16T12:02:49;21.30;99.90
3492;DHT22;1760;52.480;13.422;2022-10-16T12:05:24;21.10;99.90
3492;DHT22;1760;52.480;13.422;2022-10-16T12:08:02;21.00;99.90
3492;DHT22;1760;52.480;13.422;2022-10-16T12:10:31;20.80;99.90
3492;DHT22;1760;52.480;13.422;2022-10-16T12:13:02;20.80;99.90
3492;DHT22;1760;52.480;13.422;2022-10-16T12:15:30;20.80;99.90
3492;DHT22;1760;52.480;13.422;2022-10-16T12:17:58;20.80;99.90
3492;DHT22;1760;52.480;13.422;2022-10-16T12:20:27;20.70;99.90
3492;DHT22;1760;52.480;13.422;2022-10-16T12:22:58;20.80;99.90
3492;DHT22;1760;52.480;13.422;2022-10-16T12:25:28;21.00;99.90
3492;DHT22;1760;52.480;13.422;2022-10-16T12:28:03;21.10;99.90
3492;DHT22;1760;52.480;13.422;2022-10-16T12:30:32;21.10;99.90
3492;DHT22;1760;52.480;13.422;2022-10-16T12:33:01;21.20;99.90
3492;DHT22;1760;52.480;13.422;2022-10-16T12:35:31;21.30;99.90
3492;DHT22;1760;52.480;13.422;2022-10-16T12:38:07;21.40;99.90
3492;DHT22;1760;52.480;13.422;2022-10-16T12:40:36;21.60;99.90
3492;DHT22;1760;52.480;13.422;2022-10-16T12:43:34;21.70;99.90
3492;DHT22;1760;52.480;13.422;2022-10-16T12:46:04;21.80;99.90
3492;DHT22;1760;52.480;13.422;2022-10-16T12:48:32;22.00;99.90
3492;DHT22;1760;52.480;13.422;2022-10-16T12:51:10;22.00;99.90
3492;DHT22;1760;52.480;13.422;2022-10-16T12:53:37;22.00;99.90
3492;DHT22;1760;52.480;13.422;2022-10-16T12:56:12;22.00;99.90
3492;DHT22;1760;52.480;13.422;2022-10-16T12:58:56;22.00;99.90
3492;DHT22;1760;52.480;13.422;2022-10-16T13:01:39;21.90;99.90
3492;DHT22;1760;52.480;13.422;2022-10-16T13:04:29;21.90;99.90
3492;DHT22;1760;52.480;13.422;2022-10-16T13:07:09;21.80;99.90
3492;DHT22;1760;52.480;13.422;2022-10-16T13:09:53;21.80;99.90
3492;DHT22;1760;52.480;13.422;2022-10-16T13:12:33;21.70;99.90
3492;DHT22;1760;52.480;13.422;2022-10-16T13:15:26;21.70;99.90
3492;DHT22;1760;52.480;13.422;2022-10-16T13:18:00;21.70;99.90
3492;DHT22;1760;52.480;13.422;2022-10-16T13:20:56;21.60;99.90
3492;DHT22;1760;52.480;13.422;2022-10-16T13:23:33;21.60;99.90
3492;DHT22;1760;52.480;13.422;2022-10-16T13:26:12;21.70;99.90
3492;DHT22;1760;52.480;13.422;2022-10-16T13:28:42;21.70;99.90
3492;DHT22;1760;52.480;13.422;2022-10-16T13:31:15;21.60;99.90
3492;DHT22;1760;52.480;13.422;2022-10-16T13:33:47;21.50;99.90
3492;DHT22;1760;52.480;13.422;2022-10-16T13:36:20;21.30;99.90
3492;DHT22;1760;52.480;13.422;2022-10-16T13:39:09;21.20;99.90
3492;DHT22;1760;52.480;13.422;2022-10-16T13:41:37;21.00;99.90
3492;DHT22;1760;52.480;13.422;2022-10-16T13:44:06;21.00;99.90
3492;DHT22;1760;52.480;13.422;2022-10-16T13:46:39;21.00;99.90
3492;DHT22;1760;52.480;13.422;2022-10-16T13:49:18;20.90;99.90
3492;DHT22;1760;52.480;13.422;2022-10-16T13:51:57;20.70;99.90
3492;DHT22;1760;52.480;13.422;2022-10-16T13:54:25;20.60;99.90
3492;DHT22;1760;52.480;13.422;2022-10-16T13:56:54;20.70;99.90
3492;DHT22;1760;52.480;13.422;2022-10-16T13:59:26;20.70;99.90
3492;DHT22;1760;52.480;13.422;2022-10-16T14:02:14;20.70;99.90
3492;DHT22;1760;52.480;13.422;2022-10-16T14:04:44;20.70;99.90
3492;DHT22;1760;52.480;13.422;2022-10-16T14:07:13;20.70;99.90
3492;DHT22;1760;52.480;13.422;2022-10-16T14:09:41;20.70;99.90
3492;DHT22;1760;52.480;13.422;2022-10-16T14:12:10;20.70;99.90
3492;DHT22;1760;52.480;13.422;2022-10-16T14:14:42;20.70;99.90
3492;DHT22;1760;52.480;13.422;2022-10-16T14:17:15;20.80;99.90
3492;DHT22;1760;52.480;13.422;2022-10-16T14:19:51;21.00;99.90
3492;DHT22;1760;52.480;13.422;2022-10-16T14:22:28;21.20;99.90
3492;DHT22;1760;52.480;13.422;2022-10-16T14:24:55;21.70;99.90
3492;DHT22;1760;52.480;13.422;2022-10-16T14:27:28;22.30;99.90
3492;DHT22;1760;52.480;13.422;2022-10-16T14:30:12;22.10;99.90
3492;DHT22;1760;52.480;13.422;2022-10-16T14:32:52;21.90;99.90
3492;DHT22;1760;52.480;13.422;2022-10-16T14:35:32;21.70;99.90
3492;DHT22;1760;52.480;13.422;2022-10-16T14:38:01;21.50;99.90
3492;DHT22;1760;52.480;13.422;2022-10-16T14:40:29;21.30;99.90
3492;DHT22;1760;52.480;13.422;2022-10-16T14:42:57;21.20;99.90
3492;DHT22;1760;52.480;13.422;2022-10-16T14:45:28;21.10;99.90
3492;DHT22;1760;52.480;13.422;2022-10-16T14:48:02;21.10;99.90
3492;DHT22;1760;52.480;13.422;2022-10-16T14:50:29;21.70;99.90
3492;DHT22;1760;52.480;13.422;2022-10-16T14:52:58;21.00;99.90
3492;DHT22;1760;52.480;13.422;2022-10-16T14:55:25;21.00;99.90
3492;DHT22;1760;52.480;13.422;2022-10-16T14:57:52;21.00;99.90
3492;DHT22;1760;52.480;13.422;2022-10-16T15:00:21;20.90;99.90
3492;DHT22;1760;52.480;13.422;2022-10-16T15:02:50;20.80;99.90
3492;DHT22;1760;52.480;13.422;2022-10-16T15:05:25;20.70;99.90
3492;DHT22;1760;52.480;13.422;2022-10-16T15:07:53;20.70;99.90
3492;DHT22;1760;52.480;13.422;2022-10-16T15:10:22;20.50;99.90
3492;DHT22;1760;52.480;13.422;2022-10-16T15:12:49;20.40;99.90
3492;DHT22;1760;52.480;13.422;2022-10-16T15:15:31;20.40;99.90
3492;DHT22;1760;52.480;13.422;2022-10-16T15:17:59;20.30;99.90
3492;DHT22;1760;52.480;13.422;2022-10-16T15:20:38;20.30;99.90
3492;DHT22;1760;52.480;13.422;2022-10-16T15:23:06;20.20;99.90
3492;DHT22;1760;52.480;13.422;2022-10-16T15:25:39;20.20;99.90
3492;DHT22;1760;52.480;13.422;2022-10-16T15:28:08;20.10;99.90
3492;DHT22;1760;52.480;13.422;2022-10-16T15:30:35;19.90;99.90
3492;DHT22;1760;52.480;13.422;2022-10-16T15:33:03;19.80;99.90
3492;DHT22;1760;52.480;13.422;2022-10-16T15:35:33;19.80;99.90
3492;DHT22;1760;52.480;13.422;2022-10-16T15:38:05;19.70;99.90
3492;DHT22;1760;52.480;13.422;2022-10-16T15:40:35;19.70;99.90
3492;DHT22;1760;52.480;13.422;2022-10-16T15:43:08;19.60;99.90
3492;DHT22;1760;52.480;13.422;2022-10-16T15:45:38;19.50;99.90
3492;DHT22;1760;52.480;13.422;2022-10-16T15:48:08;19.50;99.90
3492;DHT22;1760;52.480;13.422;2022-10-16T15:50:37;19.40;99.90
3492;DHT22;1760;52.480;13.422;2022-10-16T15:53:06;19.30;99.90
3492;DHT22;1760;52.480;13.422;2022-10-16T15:55:33;19.30;99.90
3492;DHT22;1760;52.480;13.422;2022-10-16T15:58:03;19.20;99.90
3492;DHT22;1760;52.480;13.422;2022-10-16T16:00:31;19.10;99.90
3492;DHT22;1760;52.480;13.422;2022-10-16T16:03:00;19.10;99.90
3492;DHT22;1760;52.480;13.422;2022-10-16T16:05:29;19.00;99.90
3492;DHT22;1760;52.480;13.422;2022-10-16T16:07:56;18.90;99.90
3492;DHT22;1760;52.480;13.422;2022-10-16T16:10:25;18.80;99.90
3492;DHT22;1760;52.480;13.422;2022-10-16T16:12:55;18.80;99.90
3492;DHT22;1760;52.480;13.422;2022-10-16T16:15:24;18.70;99.90
3492;DHT22;1760;52.480;13.422;2022-10-16T16:17:51;18.60;99.90